sensor_id;sensor_type;location;lat;lon;timestamp;P1;durP1;ratioP1;P2;durP2;ratioP2
54853;SDS011;40747;49.480;8.658;2023-09-30T00:00:33;6.60;;;1.90;;
54853;SDS011;40747;49.480;8.658;2023-09-30T00:02:59;8.18;;;2.83;;
54853;SDS011;40747;49.480;8.658;2023-09-30T00:05:25;5.88;;;1.77;;
54853;SDS011;40747;49.480;8.658;2023-09-30T00:07:51;2.65;;;1.50;;
54853;SDS011;40747;49.480;8.658;2023-09-30T00:10:16;2.42;;;1.50;;
54853;SDS011;40747;49.480;8.658;2023-09-30T00:12:41;4.45;;;1.92;;
54853;SDS011;40747;49.480;8.658;2023-09-30T00:15:07;4.45;;;2.17;;
54853;SDS011;40747;49.480;8.658;2023-09-30T00:17:32;2.38;;;1.60;;
54853;SDS011;40747;49.480;8.658;2023-09-30T00:19:57;2.80;;;1.73;;
54853;SDS011;40747;49.480;8.658;2023-09-30T00:22:24;2.58;;;1.70;;
54853;SDS011;40747;49.480;8.658;2023-09-30T00:24:49;1.60;;;1.27;;
54853;SDS011;40747;49.480;8.658;2023-09-30T00:27:14;2.10;;;1.50;;
54853;SDS011;40747;49.480;8.658;2023-09-30T00:29:40;2.58;;;1.50;;
54853;SDS011;40747;49.480;8.658;2023-09-30T00:32:05;2.08;;;1.55;;
54853;SDS011;40747;49.480;8.658;2023-09-30T00:34:34;3.33;;;1.85;;
54853;SDS011;40747;49.480;8.658;2023-09-30T00:37:00;2.15;;;1.73;;
54853;SDS011;40747;49.480;8.658;2023-09-30T00:39:25;6.30;;;1.63;;
54853;SDS011;40747;49.480;8.658;2023-09-30T00:41:54;2.58;;;1.70;;
54853;SDS011;40747;49.480;8.658;2023-09-30T00:44:20;4.60;;;1.90;;
54853;SDS011;40747;49.480;8.658;2023-09-30T00:46:45;3.50;;;1.80;;
54853;SDS011;40747;49.480;8.658;2023-09-30T00:49:11;6.53;;;1.73;;
54853;SDS011;40747;49.480;8.658;2023-09-30T00:51:39;2.63;;;1.38;;
54853;SDS011;40747;49.480;8.658;2023-09-30T00:54:05;3.85;;;1.70;;
54853;SDS011;40747;49.480;8.658;2023-09-30T00:56:31;3.15;;;1.88;;
54853;SDS011;40747;49.480;8.658;2023-09-30T00:58:57;6.63;;;2.20;;
54853;SDS011;40747;49.480;8.658;2023-09-30T01:01:23;6.40;;;2.25;;
54853;SDS011;40747;49.480;8.658;2023-09-30T01:03:49;3.95;;;1.67;;
54853;SDS011;40747;49.480;8.658;2023-09-30T01:06:14;4.95;;;1.88;;
54853;SDS011;40747;49.480;8.658;2023-09-30T01:08:39;5.47;;;1.70;;
54853;SDS011;40747;49.480;8.658;2023-09-30T01:11:06;3.03;;;1.75;;
54853;SDS011;40747;49.480;8.658;2023-09-30T01:13:35;3.88;;;1.90;;
54853;SDS011;40747;49.480;8.658;2023-09-30T01:16:05;2.95;;;2.03;;
54853;SDS011;40747;49.480;8.658;2023-09-30T01:18:31;5.30;;;2.15;;
54853;SDS011;40747;49.480;8.658;2023-09-30T01:20:57;6.15;;;1.80;;
54853;SDS011;40747;49.480;8.658;2023-09-30T01:23:28;2.65;;;1.50;;
54853;SDS011;40747;49.480;8.658;2023-09-30T01:25:54;3.05;;;1.27;;
54853;SDS011;40747;49.480;8.658;2023-09-30T01:28:19;6.03;;;1.98;;
54853;SDS011;40747;49.480;8.658;2023-09-30T01:30:45;3.53;;;1.75;;
54853;SDS011;40747;49.480;8.658;2023-09-30T01:33:10;7.22;;;1.92;;
54853;SDS011;40747;49.480;8.658;2023-09-30T01:35:36;3.38;;;1.88;;
54853;SDS011;40747;49.480;8.658;2023-09-30T01:38:01;5.32;;;1.77;;
54853;SDS011;40747;49.480;8.658;2023-09-30T01:40:26;5.82;;;2.15;;
54853;SDS011;40747;49.480;8.658;2023-09-30T01:42:52;5.03;;;1.67;;
54853;SDS011;40747;49.480;8.658;2023-09-30T01:45:17;4.13;;;1.90;;
54853;SDS011;40747;49.480;8.658;2023-09-30T01:47:42;2.80;;;2.03;;
54853;SDS011;40747;49.480;8.658;2023-09-30T01:50:08;3.88;;;1.63;;
54853;SDS011;40747;49.480;8.658;2023-09-30T01:52:33;6.70;;;1.75;;
54853;SDS011;40747;49.480;8.658;2023-09-30T01:54:59;3.28;;;1.73;;
54853;SDS011;40747;49.480;8.658;2023-09-30T01:57:24;4.72;;;1.90;;
54853;SDS011;40747;49.480;8.658;2023-09-30T01:59:50;7.13;;;1.90;;
54853;SDS011;40747;49.480;8.658;2023-09-30T02:02:15;4.70;;;2.05;;
54853;SDS011;40747;49.480;8.658;2023-09-30T02:04:41;3.42;;;1.95;;
54853;SDS011;40747;49.480;8.658;2023-09-30T02:07:06;3.83;;;1.98;;
54853;SDS011;40747;49.480;8.658;2023-09-30T02:09:31;2.33;;;1.63;;
54853;SDS011;40747;49.480;8.658;2023-09-30T02:11:56;3.42;;;1.70;;
54853;SDS011;40747;49.480;8.658;2023-09-30T02:14:22;6.95;;;1.90;;
54853;SDS011;40747;49.480;8.658;2023-09-30T02:16:47;3.65;;;2.08;;
54853;SDS011;40747;49.480;8.658;2023-09-30T02:19:13;2.15;;;1.60;;
54853;SDS011;40747;49.480;8.658;2023-09-30T02:21:38;3.67;;;2.05;;
54853;SDS011;40747;49.480;8.658;2023-09-30T02:24:03;3.38;;;1.70;;
54853;SDS011;40747;49.480;8.658;2023-09-30T02:26:32;4.60;;;2.13;;
54853;SDS011;40747;49.480;8.658;2023-09-30T02:28:57;4.78;;;1.77;;
54853;SDS011;40747;49.480;8.658;2023-09-30T02:31:23;2.78;;;1.67;;
54853;SDS011;40747;49.480;8.658;2023-09-30T02:33:48;7.00;;;1.98;;
54853;SDS011;40747;49.480;8.658;2023-09-30T02:36:14;4.07;;;1.95;;
54853;SDS011;40747;49.480;8.658;2023-09-30T02:38:40;3.03;;;1.67;;
54853;SDS011;40747;49.480;8.658;2023-09-30T02:41:06;4.60;;;2.08;;
54853;SDS011;40747;49.480;8.658;2023-09-30T02:43:31;3.88;;;2.20;;
54853;SDS011;40747;49.480;8.658;2023-09-30T02:45:57;6.70;;;2.20;;
54853;SDS011;40747;49.480;8.658;2023-09-30T02:48:23;6.20;;;2.20;;
54853;SDS011;40747;49.480;8.658;2023-09-30T02:50:48;3.17;;;2.10;;
54853;SDS011;40747;49.480;8.658;2023-09-30T02:53:13;7.35;;;2.40;;
54853;SDS011;40747;49.480;8.658;2023-09-30T02:55:42;4.95;;;2.03;;
54853;SDS011;40747;49.480;8.658;2023-09-30T02:58:08;3.88;;;2.22;;
54853;SDS011;40747;49.480;8.658;2023-09-30T03:00:34;4.72;;;1.95;;
54853;SDS011;40747;49.480;8.658;2023-09-30T03:03:03;6.10;;;2.72;;
54853;SDS011;40747;49.480;8.658;2023-09-30T03:05:29;6.75;;;3.28;;
54853;SDS011;40747;49.480;8.658;2023-09-30T03:07:58;2.47;;;1.92;;
54853;SDS011;40747;49.480;8.658;2023-09-30T03:10:24;5.90;;;2.60;;
54853;SDS011;40747;49.480;8.658;2023-09-30T03:12:51;7.10;;;2.40;;
54853;SDS011;40747;49.480;8.658;2023-09-30T03:15:20;7.78;;;2.67;;
54853;SDS011;40747;49.480;8.658;2023-09-30T03:17:46;4.72;;;1.90;;
54853;SDS011;40747;49.480;8.658;2023-09-30T03:20:11;5.97;;;2.72;;
54853;SDS011;40747;49.480;8.658;2023-09-30T03:22:42;2.97;;;2.05;;
54853;SDS011;40747;49.480;8.658;2023-09-30T03:25:08;6.20;;;2.05;;
54853;SDS011;40747;49.480;8.658;2023-09-30T03:27:35;5.57;;;2.42;;
54853;SDS011;40747;49.480;8.658;2023-09-30T03:30:01;4.85;;;2.42;;
54853;SDS011;40747;49.480;8.658;2023-09-30T03:32:30;3.90;;;1.85;;
54853;SDS011;40747;49.480;8.658;2023-09-30T03:34:58;3.58;;;2.30;;
54853;SDS011;40747;49.480;8.658;2023-09-30T03:37:25;3.60;;;2.05;;
54853;SDS011;40747;49.480;8.658;2023-09-30T03:39:53;2.67;;;1.90;;
54853;SDS011;40747;49.480;8.658;2023-09-30T03:42:22;3.55;;;2.25;;
54853;SDS011;40747;49.480;8.658;2023-09-30T03:44:47;7.07;;;2.38;;
54853;SDS011;40747;49.480;8.658;2023-09-30T03:47:16;4.20;;;2.15;;
54853;SDS011;40747;49.480;8.658;2023-09-30T03:49:42;5.30;;;2.22;;
54853;SDS011;40747;49.480;8.658;2023-09-30T03:52:08;7.38;;;2.75;;
54853;SDS011;40747;49.480;8.658;2023-09-30T03:54:34;2.92;;;2.22;;
54853;SDS011;40747;49.480;8.658;2023-09-30T03:57:00;3.35;;;1.83;;
54853;SDS011;40747;49.480;8.658;2023-09-30T03:59:26;3.95;;;2.47;;
54853;SDS011;40747;49.480;8.658;2023-09-30T04:01:51;5.50;;;2.33;;
54853;SDS011;40747;49.480;8.658;2023-09-30T04:04:18;5.85;;;2.55;;
54853;SDS011;40747;49.480;8.658;2023-09-30T04:06:44;9.13;;;2.92;;
54853;SDS011;40747;49.480;8.658;2023-09-30T04:09:13;9.27;;;2.67;;
54853;SDS011;40747;49.480;8.658;2023-09-30T04:11:38;2.67;;;1.90;;
54853;SDS011;40747;49.480;8.658;2023-09-30T04:14:07;7.15;;;2.97;;
54853;SDS011;40747;49.480;8.658;2023-09-30T04:16:33;6.32;;;2.67;;
54853;SDS011;40747;49.480;8.658;2023-09-30T04:18:59;11.80;;;2.78;;
54853;SDS011;40747;49.480;8.658;2023-09-30T04:21:25;7.07;;;3.10;;
54853;SDS011;40747;49.480;8.658;2023-09-30T04:23:52;6.90;;;3.67;;
54853;SDS011;40747;49.480;8.658;2023-09-30T04:26:18;10.02;;;3.40;;
54853;SDS011;40747;49.480;8.658;2023-09-30T04:28:43;7.72;;;3.53;;
54853;SDS011;40747;49.480;8.658;2023-09-30T04:31:09;8.93;;;3.97;;
54853;SDS011;40747;49.480;8.658;2023-09-30T04:33:34;8.00;;;3.78;;
54853;SDS011;40747;49.480;8.658;2023-09-30T04:36:01;9.38;;;3.55;;
54853;SDS011;40747;49.480;8.658;2023-09-30T04:38:26;6.22;;;3.80;;
54853;SDS011;40747;49.480;8.658;2023-09-30T04:40:52;7.63;;;3.60;;
54853;SDS011;40747;49.480;8.658;2023-09-30T04:43:19;6.53;;;3.72;;
54853;SDS011;40747;49.480;8.658;2023-09-30T04:45:44;5.35;;;2.95;;
54853;SDS011;40747;49.480;8.658;2023-09-30T04:48:11;4.63;;;2.60;;
54853;SDS011;40747;49.480;8.658;2023-09-30T04:50:38;7.60;;;2.90;;
54853;SDS011;40747;49.480;8.658;2023-09-30T04:53:04;6.22;;;3.10;;
54853;SDS011;40747;49.480;8.658;2023-09-30T04:55:29;4.50;;;2.75;;
54853;SDS011;40747;49.480;8.658;2023-09-30T04:57:54;5.20;;;2.88;;
54853;SDS011;40747;49.480;8.658;2023-09-30T05:00:20;13.32;;;4.22;;
54853;SDS011;40747;49.480;8.658;2023-09-30T05:02:50;5.28;;;3.00;;
54853;SDS011;40747;49.480;8.658;2023-09-30T05:05:17;8.77;;;3.08;;
54853;SDS011;40747;49.480;8.658;2023-09-30T05:07:42;6.40;;;3.08;;
54853;SDS011;40747;49.480;8.658;2023-09-30T05:10:08;8.15;;;3.83;;
54853;SDS011;40747;49.480;8.658;2023-09-30T05:12:40;10.82;;;4.13;;
54853;SDS011;40747;49.480;8.658;2023-09-30T05:15:10;6.07;;;3.65;;
54853;SDS011;40747;49.480;8.658;2023-09-30T05:17:36;5.13;;;2.67;;
54853;SDS011;40747;49.480;8.658;2023-09-30T05:20:01;7.65;;;3.25;;
54853;SDS011;40747;49.480;8.658;2023-09-30T05:22:31;5.90;;;2.95;;
54853;SDS011;40747;49.480;8.658;2023-09-30T05:24:57;5.78;;;3.15;;
54853;SDS011;40747;49.480;8.658;2023-09-30T05:27:23;7.93;;;3.53;;
54853;SDS011;40747;49.480;8.658;2023-09-30T05:29:48;6.72;;;3.47;;
54853;SDS011;40747;49.480;8.658;2023-09-30T05:32:13;5.72;;;3.67;;
54853;SDS011;40747;49.480;8.658;2023-09-30T05:34:39;7.35;;;3.58;;
54853;SDS011;40747;49.480;8.658;2023-09-30T05:37:05;8.13;;;3.78;;
54853;SDS011;40747;49.480;8.658;2023-09-30T05:39:30;7.93;;;3.67;;
54853;SDS011;40747;49.480;8.658;2023-09-30T05:41:56;5.53;;;3.60;;
54853;SDS011;40747;49.480;8.658;2023-09-30T05:44:22;7.07;;;4.07;;
54853;SDS011;40747;49.480;8.658;2023-09-30T05:46:47;9.57;;;4.22;;
54853;SDS011;40747;49.480;8.658;2023-09-30T05:49:12;7.20;;;4.28;;
54853;SDS011;40747;49.480;8.658;2023-09-30T05:51:41;5.85;;;4.03;;
54853;SDS011;40747;49.480;8.658;2023-09-30T05:54:07;8.05;;;3.55;;
54853;SDS011;40747;49.480;8.658;2023-09-30T05:56:35;5.70;;;3.92;;
54853;SDS011;40747;49.480;8.658;2023-09-30T05:59:02;5.32;;;3.97;;
54853;SDS011;40747;49.480;8.658;2023-09-30T06:01:29;4.03;;;2.95;;
54853;SDS011;40747;49.480;8.658;2023-09-30T06:03:55;8.10;;;4.00;;
54853;SDS011;40747;49.480;8.658;2023-09-30T06:06:21;6.93;;;4.10;;
54853;SDS011;40747;49.480;8.658;2023-09-30T06:08:47;9.77;;;3.58;;
54853;SDS011;40747;49.480;8.658;2023-09-30T06:11:16;9.77;;;3.58;;
54853;SDS011;40747;49.480;8.658;2023-09-30T06:13:42;6.85;;;2.83;;
54853;SDS011;40747;49.480;8.658;2023-09-30T06:16:08;7.78;;;3.55;;
54853;SDS011;40747;49.480;8.658;2023-09-30T06:18:33;5.38;;;3.67;;
54853;SDS011;40747;49.480;8.658;2023-09-30T06:20:59;6.28;;;3.15;;
54853;SDS011;40747;49.480;8.658;2023-09-30T06:23:24;9.18;;;4.13;;
54853;SDS011;40747;49.480;8.658;2023-09-30T06:25:50;6.55;;;3.50;;
54853;SDS011;40747;49.480;8.658;2023-09-30T06:28:16;5.53;;;3.20;;
54853;SDS011;40747;49.480;8.658;2023-09-30T06:30:42;8.90;;;3.97;;
54853;SDS011;40747;49.480;8.658;2023-09-30T06:33:10;6.15;;;3.65;;
54853;SDS011;40747;49.480;8.658;2023-09-30T06:35:37;7.07;;;3.72;;
54853;SDS011;40747;49.480;8.658;2023-09-30T06:38:06;5.40;;;3.90;;
54853;SDS011;40747;49.480;8.658;2023-09-30T06:40:32;7.18;;;3.80;;
54853;SDS011;40747;49.480;8.658;2023-09-30T06:42:58;9.93;;;3.78;;
54853;SDS011;40747;49.480;8.658;2023-09-30T06:45:26;13.82;;;4.15;;
54853;SDS011;40747;49.480;8.658;2023-09-30T06:47:51;5.43;;;3.60;;
54853;SDS011;40747;49.480;8.658;2023-09-30T06:50:16;7.68;;;4.20;;
54853;SDS011;40747;49.480;8.658;2023-09-30T06:52:42;8.27;;;4.57;;
54853;SDS011;40747;49.480;8.658;2023-09-30T06:55:10;7.82;;;4.15;;
54853;SDS011;40747;49.480;8.658;2023-09-30T06:57:38;8.30;;;4.30;;
54853;SDS011;40747;49.480;8.658;2023-09-30T07:00:08;7.72;;;4.60;;
54853;SDS011;40747;49.480;8.658;2023-09-30T07:02:36;8.98;;;3.45;;
54853;SDS011;40747;49.480;8.658;2023-09-30T07:05:09;6.32;;;3.20;;
54853;SDS011;40747;49.480;8.658;2023-09-30T07:07:38;6.25;;;3.90;;
54853;SDS011;40747;49.480;8.658;2023-09-30T07:10:05;8.07;;;3.83;;
54853;SDS011;40747;49.480;8.658;2023-09-30T07:12:31;13.50;;;4.50;;
54853;SDS011;40747;49.480;8.658;2023-09-30T07:14:58;7.50;;;3.28;;
54853;SDS011;40747;49.480;8.658;2023-09-30T07:17:23;5.30;;;2.97;;
54853;SDS011;40747;49.480;8.658;2023-09-30T07:19:49;6.07;;;3.35;;
54853;SDS011;40747;49.480;8.658;2023-09-30T07:22:15;5.32;;;3.20;;
54853;SDS011;40747;49.480;8.658;2023-09-30T07:24:40;10.85;;;4.30;;
54853;SDS011;40747;49.480;8.658;2023-09-30T07:27:05;10.68;;;4.13;;
54853;SDS011;40747;49.480;8.658;2023-09-30T07:29:31;5.82;;;3.45;;
54853;SDS011;40747;49.480;8.658;2023-09-30T07:31:57;7.20;;;3.35;;
54853;SDS011;40747;49.480;8.658;2023-09-30T07:34:22;6.95;;;3.72;;
54853;SDS011;40747;49.480;8.658;2023-09-30T07:36:47;6.85;;;3.65;;
54853;SDS011;40747;49.480;8.658;2023-09-30T07:39:12;7.47;;;3.95;;
54853;SDS011;40747;49.480;8.658;2023-09-30T07:41:38;5.88;;;3.25;;
54853;SDS011;40747;49.480;8.658;2023-09-30T07:44:03;6.18;;;3.70;;
54853;SDS011;40747;49.480;8.658;2023-09-30T07:46:30;7.47;;;3.17;;
54853;SDS011;40747;49.480;8.658;2023-09-30T07:48:55;4.95;;;2.72;;
54853;SDS011;40747;49.480;8.658;2023-09-30T07:51:20;4.82;;;3.25;;
54853;SDS011;40747;49.480;8.658;2023-09-30T07:53:46;8.27;;;3.47;;
54853;SDS011;40747;49.480;8.658;2023-09-30T07:56:11;7.30;;;2.92;;
54853;SDS011;40747;49.480;8.658;2023-09-30T07:58:37;6.65;;;3.22;;
54853;SDS011;40747;49.480;8.658;2023-09-30T08:01:02;5.32;;;2.50;;
54853;SDS011;40747;49.480;8.658;2023-09-30T08:03:27;6.22;;;2.78;;
54853;SDS011;40747;49.480;8.658;2023-09-30T08:05:52;10.68;;;2.72;;
54853;SDS011;40747;49.480;8.658;2023-09-30T08:08:18;8.00;;;3.47;;
54853;SDS011;40747;49.480;8.658;2023-09-30T08:10:44;8.02;;;3.10;;
54853;SDS011;40747;49.480;8.658;2023-09-30T08:13:09;5.18;;;2.78;;
54853;SDS011;40747;49.480;8.658;2023-09-30T08:15:34;4.95;;;2.80;;
54853;SDS011;40747;49.480;8.658;2023-09-30T08:18:00;4.65;;;2.45;;
54853;SDS011;40747;49.480;8.658;2023-09-30T08:20:27;8.05;;;2.42;;
54853;SDS011;40747;49.480;8.658;2023-09-30T08:22:52;6.10;;;2.47;;
54853;SDS011;40747;49.480;8.658;2023-09-30T08:25:18;7.68;;;2.35;;
54853;SDS011;40747;49.480;8.658;2023-09-30T08:27:43;6.63;;;1.70;;
54853;SDS011;40747;49.480;8.658;2023-09-30T08:30:10;7.28;;;1.75;;
54853;SDS011;40747;49.480;8.658;2023-09-30T08:32:36;6.25;;;1.50;;
54853;SDS011;40747;49.480;8.658;2023-09-30T08:35:04;5.93;;;2.83;;
54853;SDS011;40747;49.480;8.658;2023-09-30T08:37:30;5.50;;;1.92;;
54853;SDS011;40747;49.480;8.658;2023-09-30T08:39:56;5.88;;;1.85;;
54853;SDS011;40747;49.480;8.658;2023-09-30T08:42:21;5.60;;;1.58;;
54853;SDS011;40747;49.480;8.658;2023-09-30T08:44:47;5.20;;;1.67;;
54853;SDS011;40747;49.480;8.658;2023-09-30T08:47:13;4.40;;;1.60;;
54853;SDS011;40747;49.480;8.658;2023-09-30T08:49:40;6.30;;;1.77;;
54853;SDS011;40747;49.480;8.658;2023-09-30T08:52:09;4.95;;;1.67;;
54853;SDS011;40747;49.480;8.658;2023-09-30T08:54:35;4.43;;;1.33;;
54853;SDS011;40747;49.480;8.658;2023-09-30T08:57:01;3.58;;;1.83;;
54853;SDS011;40747;49.480;8.658;2023-09-30T08:59:29;4.50;;;1.67;;
54853;SDS011;40747;49.480;8.658;2023-09-30T09:01:58;3.33;;;1.50;;
54853;SDS011;40747;49.480;8.658;2023-09-30T09:04:24;5.00;;;1.48;;
54853;SDS011;40747;49.480;8.658;2023-09-30T09:06:49;2.90;;;1.10;;
54853;SDS011;40747;49.480;8.658;2023-09-30T09:09:15;3.90;;;1.52;;
54853;SDS011;40747;49.480;8.658;2023-09-30T09:11:42;2.80;;;1.20;;
54853;SDS011;40747;49.480;8.658;2023-09-30T09:14:09;5.15;;;1.33;;
54853;SDS011;40747;49.480;8.658;2023-09-30T09:16:34;6.35;;;1.63;;
54853;SDS011;40747;49.480;8.658;2023-09-30T09:19:05;5.50;;;2.00;;
54853;SDS011;40747;49.480;8.658;2023-09-30T09:21:38;2.08;;;1.27;;
54853;SDS011;40747;49.480;8.658;2023-09-30T09:24:03;7.57;;;1.73;;
54853;SDS011;40747;49.480;8.658;2023-09-30T09:26:30;4.25;;;1.30;;
54853;SDS011;40747;49.480;8.658;2023-09-30T09:29:00;5.30;;;1.70;;
54853;SDS011;40747;49.480;8.658;2023-09-30T09:31:27;2.83;;;1.67;;
54853;SDS011;40747;49.480;8.658;2023-09-30T09:33:53;5.45;;;1.85;;
54853;SDS011;40747;49.480;8.658;2023-09-30T09:36:19;7.88;;;1.77;;
54853;SDS011;40747;49.480;8.658;2023-09-30T09:38:45;10.05;;;2.38;;
54853;SDS011;40747;49.480;8.658;2023-09-30T09:41:13;6.18;;;1.45;;
54853;SDS011;40747;49.480;8.658;2023-09-30T09:43:38;6.68;;;1.75;;
54853;SDS011;40747;49.480;8.658;2023-09-30T09:46:09;8.32;;;2.38;;
54853;SDS011;40747;49.480;8.658;2023-09-30T09:48:36;7.18;;;2.55;;
54853;SDS011;40747;49.480;8.658;2023-09-30T09:51:01;4.75;;;2.15;;
54853;SDS011;40747;49.480;8.658;2023-09-30T09:53:29;4.60;;;1.80;;
54853;SDS011;40747;49.480;8.658;2023-09-30T09:55:56;6.53;;;2.20;;
54853;SDS011;40747;49.480;8.658;2023-09-30T09:58:23;3.85;;;1.63;;
54853;SDS011;40747;49.480;8.658;2023-09-30T10:00:49;6.82;;;2.40;;
54853;SDS011;40747;49.480;8.658;2023-09-30T10:03:16;8.10;;;2.42;;
54853;SDS011;40747;49.480;8.658;2023-09-30T10:05:42;4.78;;;2.13;;
54853;SDS011;40747;49.480;8.658;2023-09-30T10:08:10;5.60;;;2.47;;
54853;SDS011;40747;49.480;8.658;2023-09-30T10:10:39;3.55;;;1.75;;
54853;SDS011;40747;49.480;8.658;2023-09-30T10:13:05;6.13;;;2.28;;
54853;SDS011;40747;49.480;8.658;2023-09-30T10:15:37;5.80;;;2.63;;
54853;SDS011;40747;49.480;8.658;2023-09-30T10:18:05;10.57;;;2.30;;
54853;SDS011;40747;49.480;8.658;2023-09-30T10:20:33;4.85;;;2.10;;
54853;SDS011;40747;49.480;8.658;2023-09-30T10:31:20;8.07;;;2.65;;
54853;SDS011;40747;49.480;8.658;2023-09-30T10:36:33;6.18;;;1.98;;
54853;SDS011;40747;49.480;8.658;2023-09-30T10:38:59;6.78;;;2.42;;
54853;SDS011;40747;49.480;8.658;2023-09-30T10:47:00;7.45;;;2.25;;
54853;SDS011;40747;49.480;8.658;2023-09-30T10:49:49;6.75;;;2.17;;
54853;SDS011;40747;49.480;8.658;2023-09-30T10:52:21;9.50;;;3.03;;
54853;SDS011;40747;49.480;8.658;2023-09-30T10:54:50;4.50;;;2.10;;
54853;SDS011;40747;49.480;8.658;2023-09-30T10:57:26;4.75;;;2.38;;
54853;SDS011;40747;49.480;8.658;2023-09-30T11:00:11;5.88;;;2.45;;
54853;SDS011;40747;49.480;8.658;2023-09-30T11:02:48;6.13;;;2.13;;
54853;SDS011;40747;49.480;8.658;2023-09-30T11:05:15;3.45;;;2.20;;
54853;SDS011;40747;49.480;8.658;2023-09-30T11:07:40;6.40;;;2.50;;
54853;SDS011;40747;49.480;8.658;2023-09-30T11:10:07;7.60;;;2.40;;
54853;SDS011;40747;49.480;8.658;2023-09-30T11:12:33;7.05;;;2.35;;
54853;SDS011;40747;49.480;8.658;2023-09-30T11:14:59;10.95;;;3.33;;
54853;SDS011;40747;49.480;8.658;2023-09-30T11:17:26;12.98;;;4.13;;
54853;SDS011;40747;49.480;8.658;2023-09-30T11:19:51;9.52;;;2.65;;
54853;SDS011;40747;49.480;8.658;2023-09-30T11:22:17;5.35;;;2.53;;
54853;SDS011;40747;49.480;8.658;2023-09-30T11:24:43;7.28;;;2.30;;
54853;SDS011;40747;49.480;8.658;2023-09-30T11:27:10;5.95;;;2.47;;
54853;SDS011;40747;49.480;8.658;2023-09-30T11:29:36;6.68;;;1.90;;
54853;SDS011;40747;49.480;8.658;2023-09-30T11:32:01;4.57;;;2.33;;
54853;SDS011;40747;49.480;8.658;2023-09-30T11:34:31;3.72;;;1.92;;
54853;SDS011;40747;49.480;8.658;2023-09-30T11:36:58;8.02;;;2.58;;
54853;SDS011;40747;49.480;8.658;2023-09-30T11:39:26;9.13;;;2.08;;
54853;SDS011;40747;49.480;8.658;2023-09-30T11:41:53;8.38;;;2.80;;
54853;SDS011;40747;49.480;8.658;2023-09-30T11:44:20;6.20;;;2.25;;
54853;SDS011;40747;49.480;8.658;2023-09-30T11:46:56;7.50;;;2.55;;
54853;SDS011;40747;49.480;8.658;2023-09-30T11:51:58;6.30;;;2.53;;
54853;SDS011;40747;49.480;8.658;2023-09-30T11:54:31;7.80;;;2.42;;
54853;SDS011;40747;49.480;8.658;2023-09-30T11:56:59;6.82;;;2.42;;
54853;SDS011;40747;49.480;8.658;2023-09-30T11:59:25;4.85;;;2.28;;
54853;SDS011;40747;49.480;8.658;2023-09-30T12:01:50;8.20;;;2.97;;
54853;SDS011;40747;49.480;8.658;2023-09-30T12:04:16;5.82;;;2.45;;
54853;SDS011;40747;49.480;8.658;2023-09-30T12:06:44;5.47;;;2.22;;
54853;SDS011;40747;49.480;8.658;2023-09-30T12:09:09;8.32;;;2.97;;
54853;SDS011;40747;49.480;8.658;2023-09-30T12:11:38;4.40;;;2.35;;
54853;SDS011;40747;49.480;8.658;2023-09-30T12:14:04;6.25;;;2.60;;
54853;SDS011;40747;49.480;8.658;2023-09-30T12:16:29;6.25;;;1.90;;
54853;SDS011;40747;49.480;8.658;2023-09-30T12:18:55;8.80;;;2.60;;
54853;SDS011;40747;49.480;8.658;2023-09-30T12:21:21;8.60;;;2.40;;
54853;SDS011;40747;49.480;8.658;2023-09-30T12:23:47;6.13;;;2.10;;
54853;SDS011;40747;49.480;8.658;2023-09-30T12:26:13;5.00;;;2.35;;
54853;SDS011;40747;49.480;8.658;2023-09-30T12:28:39;6.22;;;2.22;;
54853;SDS011;40747;49.480;8.658;2023-09-30T12:31:05;8.85;;;2.58;;
54853;SDS011;40747;49.480;8.658;2023-09-30T12:33:31;9.98;;;3.40;;
54853;SDS011;40747;49.480;8.658;2023-09-30T12:35:59;7.43;;;3.05;;
54853;SDS011;40747;49.480;8.658;2023-09-30T12:38:25;6.57;;;2.25;;
54853;SDS011;40747;49.480;8.658;2023-09-30T12:40:51;8.27;;;2.47;;
54853;SDS011;40747;49.480;8.658;2023-09-30T12:43:18;11.80;;;2.70;;
54853;SDS011;40747;49.480;8.658;2023-09-30T12:45:43;7.63;;;2.40;;
54853;SDS011;40747;49.480;8.658;2023-09-30T12:48:09;8.15;;;3.45;;
54853;SDS011;40747;49.480;8.658;2023-09-30T12:50:34;7.32;;;2.92;;
54853;SDS011;40747;49.480;8.658;2023-09-30T12:52:59;6.03;;;2.90;;
54853;SDS011;40747;49.480;8.658;2023-09-30T12:55:25;7.60;;;2.67;;
54853;SDS011;40747;49.480;8.658;2023-09-30T12:57:51;6.90;;;2.65;;
54853;SDS011;40747;49.480;8.658;2023-09-30T13:00:18;9.02;;;2.97;;
54853;SDS011;40747;49.480;8.658;2023-09-30T13:02:44;7.07;;;2.50;;
54853;SDS011;40747;49.480;8.658;2023-09-30T13:05:09;6.28;;;2.13;;
54853;SDS011;40747;49.480;8.658;2023-09-30T13:07:34;6.72;;;2.35;;
54853;SDS011;40747;49.480;8.658;2023-09-30T13:10:00;6.57;;;2.38;;
54853;SDS011;40747;49.480;8.658;2023-09-30T13:12:26;7.85;;;2.78;;
54853;SDS011;40747;49.480;8.658;2023-09-30T13:14:51;6.07;;;2.10;;
54853;SDS011;40747;49.480;8.658;2023-09-30T13:17:21;6.55;;;2.22;;
54853;SDS011;40747;49.480;8.658;2023-09-30T13:19:46;6.80;;;2.70;;
54853;SDS011;40747;49.480;8.658;2023-09-30T13:22:12;5.80;;;2.70;;
54853;SDS011;40747;49.480;8.658;2023-09-30T13:24:37;6.38;;;2.40;;
54853;SDS011;40747;49.480;8.658;2023-09-30T13:27:04;8.25;;;2.58;;
54853;SDS011;40747;49.480;8.658;2023-09-30T13:29:30;7.57;;;2.67;;
54853;SDS011;40747;49.480;8.658;2023-09-30T13:31:55;7.00;;;2.70;;
54853;SDS011;40747;49.480;8.658;2023-09-30T13:34:21;9.15;;;2.30;;
54853;SDS011;40747;49.480;8.658;2023-09-30T13:36:46;8.68;;;2.90;;
54853;SDS011;40747;49.480;8.658;2023-09-30T13:39:11;6.55;;;2.85;;
54853;SDS011;40747;49.480;8.658;2023-09-30T13:41:38;7.57;;;2.65;;
54853;SDS011;40747;49.480;8.658;2023-09-30T13:44:05;6.70;;;2.58;;
54853;SDS011;40747;49.480;8.658;2023-09-30T13:46:30;9.20;;;2.55;;
54853;SDS011;40747;49.480;8.658;2023-09-30T13:48:55;6.45;;;2.33;;
54853;SDS011;40747;49.480;8.658;2023-09-30T13:51:21;11.27;;;3.13;;
54853;SDS011;40747;49.480;8.658;2023-09-30T13:53:47;12.88;;;2.90;;
54853;SDS011;40747;49.480;8.658;2023-09-30T13:56:13;7.68;;;2.70;;
54853;SDS011;40747;49.480;8.658;2023-09-30T13:58:38;6.75;;;2.25;;
54853;SDS011;40747;49.480;8.658;2023-09-30T14:01:04;7.85;;;2.85;;
54853;SDS011;40747;49.480;8.658;2023-09-30T14:03:30;7.03;;;2.65;;
54853;SDS011;40747;49.480;8.658;2023-09-30T14:05:56;4.63;;;1.83;;
54853;SDS011;40747;49.480;8.658;2023-09-30T14:08:22;7.88;;;3.13;;
54853;SDS011;40747;49.480;8.658;2023-09-30T14:10:47;5.55;;;2.17;;
54853;SDS011;40747;49.480;8.658;2023-09-30T14:13:12;8.02;;;3.08;;
54853;SDS011;40747;49.480;8.658;2023-09-30T14:15:40;5.80;;;2.38;;
54853;SDS011;40747;49.480;8.658;2023-09-30T14:18:05;5.63;;;2.92;;
54853;SDS011;40747;49.480;8.658;2023-09-30T14:20:31;5.70;;;2.45;;
54853;SDS011;40747;49.480;8.658;2023-09-30T14:22:58;6.68;;;2.35;;
54853;SDS011;40747;49.480;8.658;2023-09-30T14:25:23;6.93;;;2.78;;
54853;SDS011;40747;49.480;8.658;2023-09-30T14:27:49;8.38;;;3.22;;
54853;SDS011;40747;49.480;8.658;2023-09-30T14:30:14;7.00;;;2.47;;
54853;SDS011;40747;49.480;8.658;2023-09-30T14:32:41;9.55;;;2.85;;
54853;SDS011;40747;49.480;8.658;2023-09-30T14:35:06;8.52;;;2.03;;
54853;SDS011;40747;49.480;8.658;2023-09-30T14:37:34;7.03;;;2.00;;
54853;SDS011;40747;49.480;8.658;2023-09-30T14:39:59;5.93;;;2.08;;
54853;SDS011;40747;49.480;8.658;2023-09-30T14:42:25;8.70;;;2.58;;
54853;SDS011;40747;49.480;8.658;2023-09-30T14:44:50;8.73;;;3.30;;
54853;SDS011;40747;49.480;8.658;2023-09-30T14:47:15;7.07;;;2.20;;
54853;SDS011;40747;49.480;8.658;2023-09-30T14:49:41;4.72;;;1.75;;
54853;SDS011;40747;49.480;8.658;2023-09-30T14:52:06;7.90;;;2.50;;
54853;SDS011;40747;49.480;8.658;2023-09-30T14:54:31;10.18;;;3.00;;
54853;SDS011;40747;49.480;8.658;2023-09-30T14:56:57;8.50;;;2.70;;
54853;SDS011;40747;49.480;8.658;2023-09-30T14:59:23;5.85;;;1.95;;
54853;SDS011;40747;49.480;8.658;2023-09-30T15:01:48;4.10;;;2.08;;